sensor_id;sensor_type;location;lat;lon;timestamp;pressure;altitude;pressure_sealevel;temperature;humidity
35918;BME280;22011;59.912;30.300;2023-04-26T00:01:11;100477.91;;;16.24;33.36
35918;BME280;22011;59.912;30.300;2023-04-26T00:03:41;100474.16;;;16.25;33.20
35918;BME280;22011;59.912;30.300;2023-04-26T00:06:08;100477.28;;;16.22;33.47
35918;BME280;22011;59.912;30.300;2023-04-26T00:08:39;100465.50;;;16.23;32.90
35918;BME280;22011;59.912;30.300;2023-04-26T00:11:07;100469.63;;;16.26;33.21
35918;BME280;22011;59.912;30.300;2023-04-26T00:13:34;100468.59;;;16.27;33.34
35918;BME280;22011;59.912;30.300;2023-04-26T00:16:04;100465.91;;;16.27;33.25
35918;BME280;22011;59.912;30.300;2023-04-26T00:18:31;100467.16;;;16.24;33.75
35918;BME280;22011;59.912;30.300;2023-04-26T00:21:00;100471.88;;;16.29;33.21
35918;BME280;22011;59.912;30.300;2023-04-26T00:23:28;100465.72;;;16.15;33.96
35918;BME280;22011;59.912;30.300;2023-04-26T00:25:56;100470.66;;;16.12;34.34
35918;BME280;22011;59.912;30.300;2023-04-26T00:28:23;100463.66;;;16.04;34.29
35918;BME280;22011;59.912;30.300;2023-04-26T00:30:51;100462.19;;;16.01;33.77
35918;BME280;22011;59.912;30.300;2023-04-26T00:33:18;100457.66;;;15.95;34.33
35918;BME280;22011;59.912;30.300;2023-04-26T00:35:46;100453.53;;;15.93;34.35
35918;BME280;22011;59.912;30.300;2023-04-26T00:38:15;100467.16;;;15.98;34.18
35918;BME280;22011;59.912;30.300;2023-04-26T00:40:42;100456.22;;;15.99;34.00
35918;BME280;22011;59.912;30.300;2023-04-26T00:43:10;100461.38;;;15.94;34.17
35918;BME280;22011;59.912;30.300;2023-04-26T00:45:38;100458.69;;;15.88;34.48
35918;BME280;22011;59.912;30.300;2023-04-26T00:48:05;100457.44;;;15.84;34.53
35918;BME280;22011;59.912;30.300;2023-04-26T00:50:33;100458.69;;;15.81;34.35
35918;BME280;22011;59.912;30.300;2023-04-26T00:53:01;100457.88;;;15.81;34.44
35918;BME280;22011;59.912;30.300;2023-04-26T00:55:31;100456.84;;;15.82;34.53
35918;BME280;22011;59.912;30.300;2023-04-26T00:57:58;100456.00;;;15.81;34.36
35918;BME280;22011;59.912;30.300;2023-04-26T01:00:26;100457.25;;;15.79;35.10
35918;BME280;22011;59.912;30.300;2023-04-26T01:02:54;100454.16;;;15.75;34.96
35918;BME280;22011;59.912;30.300;2023-04-26T01:05:22;100458.28;;;15.78;34.35
35918;BME280;22011;59.912;30.300;2023-04-26T01:07:50;100450.63;;;15.81;34.72
35918;BME280;22011;59.912;30.300;2023-04-26T01:10:18;100441.13;;;15.85;34.17
35918;BME280;22011;59.912;30.300;2023-04-26T01:12:47;100448.16;;;15.86;34.62
35918;BME280;22011;59.912;30.300;2023-04-26T01:15:17;100445.06;;;15.83;34.46
35918;BME280;22011;59.912;30.300;2023-04-26T01:17:45;100447.31;;;15.79;34.51
35918;BME280;22011;59.912;30.300;2023-04-26T01:20:13;100440.72;;;15.75;34.77
35918;BME280;22011;59.912;30.300;2023-04-26T01:22:42;100446.72;;;15.77;34.67
35918;BME280;22011;59.912;30.300;2023-04-26T01:25:11;100445.06;;;15.76;35.11
35918;BME280;22011;59.912;30.300;2023-04-26T01:27:38;100437.81;;;15.70;34.95
35918;BME280;22011;59.912;30.300;2023-04-26T01:30:07;100438.84;;;15.69;35.16
35918;BME280;22011;59.912;30.300;2023-04-26T01:32:35;100437.19;;;15.68;35.19
35918;BME280;22011;59.912;30.300;2023-04-26T01:35:03;100438.66;;;15.64;35.45
35918;BME280;22011;59.912;30.300;2023-04-26T01:37:31;100429.38;;;15.60;35.33
35918;BME280;22011;59.912;30.300;2023-04-26T01:40:00;100442.81;;;15.60;35.44
35918;BME280;22011;59.912;30.300;2023-04-26T01:42:28;100439.88;;;15.61;35.07
35918;BME280;22011;59.912;30.300;2023-04-26T01:44:59;100440.13;;;15.60;35.52
35918;BME280;22011;59.912;30.300;2023-04-26T01:47:46;100436.59;;;15.59;35.19
35918;BME280;22011;59.912;30.300;2023-04-26T01:50:13;100435.34;;;15.55;35.61
35918;BME280;22011;59.912;30.300;2023-04-26T01:52:41;100437.59;;;15.52;35.96
35918;BME280;22011;59.912;30.300;2023-04-26T01:55:10;100434.28;;;15.50;35.81
35918;BME280;22011;59.912;30.300;2023-04-26T01:57:37;100427.06;;;15.44;35.82
35918;BME280;22011;59.912;30.300;2023-04-26T02:00:07;100429.13;;;15.42;36.08
35918;BME280;22011;59.912;30.300;2023-04-26T02:02:40;100424.38;;;15.37;35.69
35918;BME280;22011;59.912;30.300;2023-04-26T02:05:09;100425.19;;;15.37;36.24
35918;BME280;22011;59.912;30.300;2023-04-26T02:07:37;100420.66;;;15.31;36.13
35918;BME280;22011;59.912;30.300;2023-04-26T02:10:06;100414.66;;;15.29;36.26
35918;BME280;22011;59.912;30.300;2023-04-26T02:12:35;100420.03;;;15.29;36.30
35918;BME280;22011;59.912;30.300;2023-04-26T02:15:04;100421.47;;;15.25;36.25
35918;BME280;22011;59.912;30.300;2023-04-26T02:17:33;100422.06;;;15.21;36.35
35918;BME280;22011;59.912;30.300;2023-04-26T02:20:02;100424.94;;;15.19;36.50
35918;BME280;22011;59.912;30.300;2023-04-26T02:22:30;100424.53;;;15.16;36.78
35918;BME280;22011;59.912;30.300;2023-04-26T02:24:57;100427.00;;;15.17;36.55
35918;BME280;22011;59.912;30.300;2023-04-26T02:27:27;100422.28;;;15.19;36.36
35918;BME280;22011;59.912;30.300;2023-04-26T02:29:55;100436.94;;;15.23;36.66
35918;BME280;22011;59.912;30.300;2023-04-26T02:32:23;100421.66;;;15.24;36.31
35918;BME280;22011;59.912;30.300;2023-04-26T02:34:51;100424.56;;;15.22;36.35
35918;BME280;22011;59.912;30.300;2023-04-26T02:37:19;100417.94;;;15.18;36.44
35918;BME280;22011;59.912;30.300;2023-04-26T02:39:48;100429.47;;;15.12;36.38
35918;BME280;22011;59.912;30.300;2023-04-26T02:42:16;100416.66;;;15.08;36.82
35918;BME280;22011;59.912;30.300;2023-04-26T02:44:44;100415.41;;;15.03;37.12
35918;BME280;22011;59.912;30.300;2023-04-26T02:47:14;100424.50;;;15.09;36.45
35918;BME280;22011;59.912;30.300;2023-04-26T02:49:41;100419.13;;;15.02;37.24
35918;BME280;22011;59.912;30.300;2023-04-26T02:52:09;100420.38;;;15.00;37.34
35918;BME280;22011;59.912;30.300;2023-04-26T02:54:37;100414.38;;;14.98;36.97
35918;BME280;22011;59.912;30.300;2023-04-26T02:57:05;100413.75;;;14.96;36.91
35918;BME280;22011;59.912;30.300;2023-04-26T02:59:33;100424.88;;;14.93;37.15
35918;BME280;22011;59.912;30.300;2023-04-26T03:02:00;100419.13;;;14.96;36.94
35918;BME280;22011;59.912;30.300;2023-04-26T03:04:31;100430.69;;;15.03;37.17
35918;BME280;22011;59.912;30.300;2023-04-26T03:07:01;100424.91;;;14.99;36.96
35918;BME280;22011;59.912;30.300;2023-04-26T03:09:29;100413.16;;;15.00;36.82
35918;BME280;22011;59.912;30.300;2023-04-26T03:11:57;100418.31;;;15.02;37.16
35918;BME280;22011;59.912;30.300;2023-04-26T03:14:25;100411.28;;;15.01;37.39
35918;BME280;22011;59.912;30.300;2023-04-26T03:16:53;100415.41;;;15.03;37.05
35918;BME280;22011;59.912;30.300;2023-04-26T03:19:21;100402.81;;;14.97;37.93
35918;BME280;22011;59.912;30.300;2023-04-26T03:21:50;100412.94;;;15.02;37.18
35918;BME280;22011;59.912;30.300;2023-04-26T03:24:18;100416.84;;;14.99;37.09
35918;BME280;22011;59.912;30.300;2023-04-26T03:26:45;100414.16;;;14.99;37.74
35918;BME280;22011;59.912;30.300;2023-04-26T03:29:15;100406.13;;;14.99;37.70
35918;BME280;22011;59.912;30.300;2023-04-26T03:31:43;100408.81;;;14.99;37.51
35918;BME280;22011;59.912;30.300;2023-04-26T03:34:11;100410.25;;;15.02;37.18
35918;BME280;22011;59.912;30.300;2023-04-26T03:36:39;100399.13;;;15.05;37.45
35918;BME280;22011;59.912;30.300;2023-04-26T03:39:08;100407.19;;;15.12;37.76
35918;BME280;22011;59.912;30.300;2023-04-26T03:41:36;100395.81;;;15.10;36.77
35918;BME280;22011;59.912;30.300;2023-04-26T03:44:06;100402.84;;;15.11;36.95
35918;BME280;22011;59.912;30.300;2023-04-26T03:46:34;100395.59;;;15.04;37.26
35918;BME280;22011;59.912;30.300;2023-04-26T03:49:01;100402.22;;;15.09;36.99
35918;BME280;22011;59.912;30.300;2023-04-26T03:51:29;100394.19;;;15.09;37.26
35918;BME280;22011;59.912;30.300;2023-04-26T03:53:57;100394.78;;;15.11;37.37
35918;BME280;22011;59.912;30.300;2023-04-26T03:56:26;100394.00;;;15.23;37.18
35918;BME280;22011;59.912;30.300;2023-04-26T03:58:54;100393.59;;;15.26;37.36
35918;BME280;22011;59.912;30.300;2023-04-26T04:01:23;100388.22;;;15.33;36.75
35918;BME280;22011;59.912;30.300;2023-04-26T04:03:51;100383.28;;;15.30;37.26
35918;BME280;22011;59.912;30.300;2023-04-26T04:06:18;100388.41;;;15.25;37.20
35918;BME280;22011;59.912;30.300;2023-04-26T04:08:46;100386.34;;;15.20;37.37
35918;BME280;22011;59.912;30.300;2023-04-26T04:11:14;100382.00;;;15.19;37.15
35918;BME280;22011;59.912;30.300;2023-04-26T04:13:43;100384.50;;;15.21;37.61
35918;BME280;22011;59.912;30.300;2023-04-26T04:16:11;100385.75;;;15.25;37.38
35918;BME280;22011;59.912;30.300;2023-04-26T04:18:38;100380.56;;;15.23;37.53
35918;BME280;22011;59.912;30.300;2023-04-26T04:21:06;100383.25;;;15.23;37.06
35918;BME280;22011;59.912;30.300;2023-04-26T04:23:33;100390.28;;;15.24;37.32
35918;BME280;22011;59.912;30.300;2023-04-26T04:26:06;100386.78;;;15.30;37.54
35918;BME280;22011;59.912;30.300;2023-04-26T04:28:34;100375.00;;;15.31;37.22
35918;BME280;22011;59.912;30.300;2023-04-26T04:31:03;100381.63;;;15.35;37.02
35918;BME280;22011;59.912;30.300;2023-04-26T04:33:30;100382.66;;;15.34;37.20
35918;BME280;22011;59.912;30.300;2023-04-26T04:35:58;100376.66;;;15.39;37.11
35918;BME280;22011;59.912;30.300;2023-04-26T04:38:26;100377.69;;;15.45;36.62
35918;BME280;22011;59.912;30.300;2023-04-26T04:40:55;100377.09;;;15.49;36.91
35918;BME280;22011;59.912;30.300;2023-04-26T04:43:24;100383.50;;;15.55;36.68
35918;BME280;22011;59.912;30.300;2023-04-26T04:45:52;100382.47;;;15.56;36.78
35918;BME280;22011;59.912;30.300;2023-04-26T04:48:22;100384.94;;;15.64;36.47
35918;BME280;22011;59.912;30.300;2023-04-26T04:50:49;100379.56;;;15.64;36.41
35918;BME280;22011;59.912;30.300;2023-04-26T04:53:17;100387.00;;;15.68;36.70
35918;BME280;22011;59.912;30.300;2023-04-26T04:55:45;100384.09;;;15.70;37.06
35918;BME280;22011;59.912;30.300;2023-04-26T04:58:16;100380.59;;;15.76;36.73
35918;BME280;22011;59.912;30.300;2023-04-26T05:00:44;100387.19;;;15.80;37.01
35918;BME280;22011;59.912;30.300;2023-04-26T05:03:30;100382.22;;;15.90;36.39
35918;BME280;22011;59.912;30.300;2023-04-26T05:06:00;100382.84;;;15.92;36.80
35918;BME280;22011;59.912;30.300;2023-04-26T05:08:28;100386.16;;;15.94;36.81
35918;BME280;22011;59.912;30.300;2023-04-26T05:10:58;100379.31;;;15.98;36.90
35918;BME280;22011;59.912;30.300;2023-04-26T05:13:26;100383.84;;;16.11;36.05
35918;BME280;22011;59.912;30.300;2023-04-26T05:15:54;100383.81;;;16.18;36.50
35918;BME280;22011;59.912;30.300;2023-04-26T05:18:21;100384.44;;;16.20;36.35
35918;BME280;22011;59.912;30.300;2023-04-26T05:20:50;100386.28;;;16.26;36.25
35918;BME280;22011;59.912;30.300;2023-04-26T05:23:18;100388.56;;;16.29;35.96
35918;BME280;22011;59.912;30.300;2023-04-26T05:25:46;100382.13;;;16.30;36.22
35918;BME280;22011;59.912;30.300;2023-04-26T05:28:32;100383.16;;;16.35;36.21
35918;BME280;22011;59.912;30.300;2023-04-26T05:31:17;100383.56;;;16.39;36.19
35918;BME280;22011;59.912;30.300;2023-04-26T05:34:23;100387.47;;;16.43;36.25
35918;BME280;22011;59.912;30.300;2023-04-26T05:36:56;100385.59;;;16.50;36.11
35918;BME280;22011;59.912;30.300;2023-04-26T05:39:25;100376.84;;;16.61;35.34
35918;BME280;22011;59.912;30.300;2023-04-26T05:41:52;100378.06;;;16.65;35.54
35918;BME280;22011;59.912;30.300;2023-04-26T05:44:20;100377.00;;;16.73;35.81
35918;BME280;22011;59.912;30.300;2023-04-26T05:46:48;100385.91;;;16.74;35.96
35918;BME280;22011;59.912;30.300;2023-04-26T05:49:15;100378.84;;;16.79;35.76
35918;BME280;22011;59.912;30.300;2023-04-26T05:51:43;100373.00;;;16.89;35.19
35918;BME280;22011;59.912;30.300;2023-04-26T05:54:12;100371.25;;;17.01;35.09
35918;BME280;22011;59.912;30.300;2023-04-26T05:56:40;100370.78;;;17.11;34.82
35918;BME280;22011;59.912;30.300;2023-04-26T05:59:09;100363.31;;;17.13;34.77
35918;BME280;22011;59.912;30.300;2023-04-26T06:01:38;100357.34;;;17.36;34.24
35918;BME280;22011;59.912;30.300;2023-04-26T06:04:06;100358.94;;;17.43;34.09
35918;BME280;22011;59.912;30.300;2023-04-26T06:06:44;100359.34;;;17.47;33.91
35918;BME280;22011;59.912;30.300;2023-04-26T06:09:14;100361.91;;;17.60;33.99
35918;BME280;22011;59.912;30.300;2023-04-26T06:11:42;100358.63;;;17.58;34.36
35918;BME280;22011;59.912;30.300;2023-04-26T06:14:09;100359.94;;;17.74;33.56
35918;BME280;22011;59.912;30.300;2023-04-26T06:16:37;100359.72;;;17.75;33.62
35918;BME280;22011;59.912;30.300;2023-04-26T06:19:05;100361.19;;;17.71;33.67
35918;BME280;22011;59.912;30.300;2023-04-26T06:21:32;100353.16;;;17.89;33.28
35918;BME280;22011;59.912;30.300;2023-04-26T06:24:00;100351.66;;;17.93;33.40
35918;BME280;22011;59.912;30.300;2023-04-26T06:26:30;100350.03;;;18.11;33.05
35918;BME280;22011;59.912;30.300;2023-04-26T06:28:58;100349.19;;;18.10;33.36
35918;BME280;22011;59.912;30.300;2023-04-26T06:31:26;100346.88;;;18.32;32.47
35918;BME280;22011;59.912;30.300;2023-04-26T06:33:55;100356.47;;;18.28;32.61
35918;BME280;22011;59.912;30.300;2023-04-26T06:36:23;100352.25;;;18.32;32.92
35918;BME280;22011;59.912;30.300;2023-04-26T06:38:50;100352.41;;;18.37;32.71
35918;BME280;22011;59.912;30.300;2023-04-26T06:41:18;100356.69;;;18.45;32.40
35918;BME280;22011;59.912;30.300;2023-04-26T06:43:49;100345.81;;;18.51;32.71
35918;BME280;22011;59.912;30.300;2023-04-26T06:46:20;100353.97;;;18.63;32.07
35918;BME280;22011;59.912;30.300;2023-04-26T06:48:53;100348.88;;;18.85;31.93
35918;BME280;22011;59.912;30.300;2023-04-26T06:51:21;100352.03;;;18.82;31.87
35918;BME280;22011;59.912;30.300;2023-04-26T06:53:48;100344.06;;;18.87;32.07
35918;BME280;22011;59.912;30.300;2023-04-26T06:56:17;100345.63;;;18.94;31.93
35918;BME280;22011;59.912;30.300;2023-04-26T06:58:59;100353.44;;;19.14;31.78
35918;BME280;22011;59.912;30.300;2023-04-26T07:01:27;100355.31;;;19.14;31.15
35918;BME280;22011;59.912;30.300;2023-04-26T07:03:54;100350.16;;;19.12;31.07
35918;BME280;22011;59.912;30.300;2023-04-26T07:06:23;100355.09;;;19.27;30.73
35918;BME280;22011;59.912;30.300;2023-04-26T07:08:51;100348.66;;;19.28;31.07
35918;BME280;22011;59.912;30.300;2023-04-26T07:11:18;100341.72;;;19.32;31.15
35918;BME280;22011;59.912;30.300;2023-04-26T07:13:46;100354.91;;;19.40;30.72
35918;BME280;22011;59.912;30.300;2023-04-26T07:16:16;100358.25;;;19.66;30.14
35918;BME280;22011;59.912;30.300;2023-04-26T07:18:43;100351.91;;;19.60;30.33
35918;BME280;22011;59.912;30.300;2023-04-26T07:21:13;100355.16;;;19.85;29.09
35918;BME280;22011;59.912;30.300;2023-04-26T07:23:40;100344.94;;;19.87;29.13
35918;BME280;22011;59.912;30.300;2023-04-26T07:26:09;100350.22;;;20.06;28.72
35918;BME280;22011;59.912;30.300;2023-04-26T07:28:37;100344.06;;;20.22;28.02
35918;BME280;22011;59.912;30.300;2023-04-26T07:31:04;100335.09;;;20.33;28.26
35918;BME280;22011;59.912;30.300;2023-04-26T07:33:33;100348.53;;;20.40;27.80
35918;BME280;22011;59.912;30.300;2023-04-26T07:36:01;100339.44;;;20.34;27.57
35918;BME280;22011;59.912;30.300;2023-04-26T07:38:28;100339.69;;;20.44;27.47
35918;BME280;22011;59.912;30.300;2023-04-26T07:40:56;100343.31;;;20.50;27.63
35918;BME280;22011;59.912;30.300;2023-04-26T07:43:24;100339.50;;;20.63;27.63
35918;BME280;22011;59.912;30.300;2023-04-26T07:45:52;100339.47;;;20.74;27.25
35918;BME280;22011;59.912;30.300;2023-04-26T07:48:19;100337.38;;;20.65;27.52
35918;BME280;22011;59.912;30.300;2023-04-26T07:50:48;100339.81;;;20.78;26.88
35918;BME280;22011;59.912;30.300;2023-04-26T07:53:17;100339.13;;;20.87;26.88
35918;BME280;22011;59.912;30.300;2023-04-26T07:55:44;100338.31;;;20.87;26.84
35918;BME280;22011;59.912;30.300;2023-04-26T07:58:12;100333.31;;;20.96;26.87
35918;BME280;22011;59.912;30.300;2023-04-26T08:00:39;100332.78;;;21.10;26.44
35918;BME280;22011;59.912;30.300;2023-04-26T08:03:07;100327.34;;;21.10;27.00
35918;BME280;22011;59.912;30.300;2023-04-26T08:05:34;100332.78;;;21.10;27.05
35918;BME280;22011;59.912;30.300;2023-04-26T08:08:03;100332.44;;;21.07;27.52
35918;BME280;22011;59.912;30.300;2023-04-26T08:10:31;100328.50;;;21.14;26.85
35918;BME280;22011;59.912;30.300;2023-04-26T08:12:59;100325.44;;;21.23;26.95
35918;BME280;22011;59.912;30.300;2023-04-26T08:15:28;100324.44;;;21.29;27.04
35918;BME280;22011;59.912;30.300;2023-04-26T08:17:57;100325.75;;;21.43;26.03
35918;BME280;22011;59.912;30.300;2023-04-26T08:20:25;100326.09;;;21.46;25.55
35918;BME280;22011;59.912;30.300;2023-04-26T08:22:54;100328.38;;;21.71;25.37
35918;BME280;22011;59.912;30.300;2023-04-26T08:25:24;100324.25;;;21.69;25.54
35918;BME280;22011;59.912;30.300;2023-04-26T08:27:52;100320.56;;;21.58;25.72
35918;BME280;22011;59.912;30.300;2023-04-26T08:30:19;100313.25;;;21.59;25.49
35918;BME280;22011;59.912;30.300;2023-04-26T08:32:47;100306.94;;;21.70;25.19
35918;BME280;22011;59.912;30.300;2023-04-26T08:35:15;100313.56;;;21.79;24.82
35918;BME280;22011;59.912;30.300;2023-04-26T08:37:43;100308.06;;;21.96;24.82
35918;BME280;22011;59.912;30.300;2023-04-26T08:40:10;100315.38;;;22.12;24.78
35918;BME280;22011;59.912;30.300;2023-04-26T08:42:41;100324.28;;;22.29;24.64
35918;BME280;22011;59.912;30.300;2023-04-26T08:45:09;100318.09;;;22.12;24.62
35918;BME280;22011;59.912;30.300;2023-04-26T08:47:41;100318.97;;;22.17;24.69
35918;BME280;22011;59.912;30.300;2023-04-26T08:50:11;100306.72;;;22.15;25.10
35918;BME280;22011;59.912;30.300;2023-04-26T08:52:41;100313.59;;;22.23;24.73
35918;BME280;22011;59.912;30.300;2023-04-26T08:55:09;100307.72;;;22.31;24.63
35918;BME280;22011;59.912;30.300;2023-04-26T08:57:39;100310.38;;;22.47;24.17
35918;BME280;22011;59.912;30.300;2023-04-26T09:00:08;100311.06;;;22.60;24.12
35918;BME280;22011;59.912;30.300;2023-04-26T09:02:39;100306.69;;;22.59;24.19
35918;BME280;22011;59.912;30.300;2023-04-26T09:05:08;100309.88;;;22.50;24.01
35918;BME280;22011;59.912;30.300;2023-04-26T09:07:41;100307.88;;;22.68;23.75
35918;BME280;22011;59.912;30.300;2023-04-26T09:10:10;100300.34;;;22.75;22.81
35918;BME280;22011;59.912;30.300;2023-04-26T09:12:40;100295.31;;;22.83;23.21
35918;BME280;22011;59.912;30.300;2023-04-26T09:15:08;100290.66;;;22.79;23.13
35918;BME280;22011;59.912;30.300;2023-04-26T09:17:37;100285.13;;;22.74;23.28
35918;BME280;22011;59.912;30.300;2023-04-26T09:20:20;100289.78;;;23.05;23.81
35918;BME280;22011;59.912;30.300;2023-04-26T09:22:49;100280.75;;;23.00;22.47
35918;BME280;22011;59.912;30.300;2023-04-26T09:25:25;100285.41;;;23.04;22.45
35918;BME280;22011;59.912;30.300;2023-04-26T09:27:54;100281.69;;;23.15;22.21
35918;BME280;22011;59.912;30.300;2023-04-26T09:30:22;100276.22;;;23.10;22.46
35918;BME280;22011;59.912;30.300;2023-04-26T09:32:52;100279.59;;;23.23;22.59
35918;BME280;22011;59.912;30.300;2023-04-26T09:35:25;100269.91;;;23.37;22.46
35918;BME280;22011;59.912;30.300;2023-04-26T09:37:55;100261.97;;;23.30;22.42
35918;BME280;22011;59.912;30.300;2023-04-26T09:40:25;100274.19;;;23.28;22.51
35918;BME280;22011;59.912;30.300;2023-04-26T09:43:03;100274.97;;;23.55;22.73
35918;BME280;22011;59.912;30.300;2023-04-26T09:45:32;100265.84;;;23.39;22.35
35918;BME280;22011;59.912;30.300;2023-04-26T09:48:14;100257.63;;;23.66;22.02
35918;BME280;22011;59.912;30.300;2023-04-26T09:50:43;100257.84;;;23.23;21.88
35918;BME280;22011;59.912;30.300;2023-04-26T09:53:24;100259.09;;;23.10;22.39
35918;BME280;22011;59.912;30.300;2023-04-26T09:55:52;100257.19;;;22.78;22.83
35918;BME280;22011;59.912;30.300;2023-04-26T09:58:21;100261.38;;;22.86;22.71
35918;BME280;22011;59.912;30.300;2023-04-26T10:00:50;100254.66;;;22.99;22.50
35918;BME280;22011;59.912;30.300;2023-04-26T10:03:18;100261.56;;;23.11;22.53
35918;BME280;22011;59.912;30.300;2023-04-26T10:05:46;100244.81;;;23.25;21.88
35918;BME280;22011;59.912;30.300;2023-04-26T10:08:14;100250.88;;;23.37;21.07
35918;BME280;22011;59.912;30.300;2023-04-26T10:13:10;100245.03;;;23.18;21.41
35918;BME280;22011;59.912;30.300;2023-04-26T10:15:40;100249.09;;;23.15;22.01
35918;BME280;22011;59.912;30.300;2023-04-26T10:18:08;100245.84;;;22.81;22.46
35918;BME280;22011;59.912;30.300;2023-04-26T10:20:39;100251.88;;;22.62;22.82
35918;BME280;22011;59.912;30.300;2023-04-26T10:23:15;100258.75;;;22.42;23.33
35918;BME280;22011;59.912;30.300;2023-04-26T10:25:46;100260.72;;;22.25;23.13
35918;BME280;22011;59.912;30.300;2023-04-26T10:28:14;100257.88;;;22.15;23.36
35918;BME280;22011;59.912;30.300;2023-04-26T10:30:57;100255.41;;;22.35;23.30
35918;BME280;22011;59.912;30.300;2023-04-26T10:33:26;100254.31;;;21.93;23.68
35918;BME280;22011;59.912;30.300;2023-04-26T10:36:08;100251.00;;;22.07;24.10
35918;BME280;22011;59.912;30.300;2023-04-26T10:38:39;100259.75;;;21.93;23.93
35918;BME280;22011;59.912;30.300;2023-04-26T10:41:26;100259.50;;;21.94;24.07
35918;BME280;22011;59.912;30.300;2023-04-26T10:43:54;100260.50;;;21.66;23.41
35918;BME280;22011;59.912;30.300;2023-04-26T10:46:37;100265.75;;;21.73;23.92
35918;BME280;22011;59.912;30.300;2023-04-26T10:49:26;100262.97;;;21.68;24.12
35918;BME280;22011;59.912;30.300;2023-04-26T10:52:10;100267.56;;;21.67;23.44
35918;BME280;22011;59.912;30.300;2023-04-26T10:54:52;100269.97;;;21.64;23.10
35918;BME280;22011;59.912;30.300;2023-04-26T10:57:20;100273.84;;;21.51;22.87
35918;BME280;22011;59.912;30.300;2023-04-26T11:00:26;100277.78;;;21.60;23.15
35918;BME280;22011;59.912;30.300;2023-04-26T11:03:05;100281.81;;;21.41;24.06
35918;BME280;22011;59.912;30.300;2023-04-26T11:05:51;100280.44;;;21.38;23.88
35918;BME280;22011;59.912;30.300;2023-04-26T11:08:23;100270.22;;;21.12;24.16
35918;BME280;22011;59.912;30.300;2023-04-26T11:10:56;100296.72;;;20.93;26.82
35918;BME280;22011;59.912;30.300;2023-04-26T11:13:24;100313.41;;;20.56;28.93
35918;BME280;22011;59.912;30.300;2023-04-26T11:15:53;100304.19;;;20.29;27.68
35918;BME280;22011;59.912;30.300;2023-04-26T11:18:22;100323.00;;;20.24;26.92
35918;BME280;22011;59.912;30.300;2023-04-26T11:20:49;100316.56;;;20.13;29.75
35918;BME280;22011;59.912;30.300;2023-04-26T11:23:17;100322.16;;;20.35;28.39
35918;BME280;22011;59.912;30.300;2023-04-26T11:25:45;100328.81;;;20.56;30.46
35918;BME280;22011;59.912;30.300;2023-04-26T11:28:13;100339.81;;;20.78;29.46
35918;BME280;22011;59.912;30.300;2023-04-26T11:30:42;100307.88;;;20.97;30.38
35918;BME280;22011;59.912;30.300;2023-04-26T11:33:15;100296.53;;;21.28;29.44
35918;BME280;22011;59.912;30.300;2023-04-26T11:35:45;100285.69;;;21.45;28.24
35918;BME280;22011;59.912;30.300;2023-04-26T11:38:13;100278.19;;;21.52;27.43
35918;BME280;22011;59.912;30.300;2023-04-26T11:40:41;100275.97;;;21.66;26.88
35918;BME280;22011;59.912;30.300;2023-04-26T11:43:10;100266.50;;;21.68;29.01
35918;BME280;22011;59.912;30.300;2023-04-26T11:45:38;100262.47;;;21.71;27.09
35918;BME280;22011;59.912;30.300;2023-04-26T11:48:08;100264.00;;;21.83;25.41
35918;BME280;22011;59.912;30.300;2023-04-26T11:50:37;100268.63;;;21.88;23.79
35918;BME280;22011;59.912;30.300;2023-04-26T11:53:07;100279.06;;;21.96;25.51
35918;BME280;22011;59.912;30.300;2023-04-26T11:55:35;100269.59;;;21.99;25.58
35918;BME280;22011;59.912;30.300;2023-04-26T11:58:09;100266.72;;;22.27;26.19
35918;BME280;22011;59.912;30.300;2023-04-26T12:00:55;100269.53;;;22.37;26.19
35918;BME280;22011;59.912;30.300;2023-04-26T12:03:28;100267.53;;;22.28;25.11
35918;BME280;22011;59.912;30.300;2023-04-26T12:05:56;100266.72;;;22.05;26.83
35918;BME280;22011;59.912;30.300;2023-04-26T12:08:26;100270.94;;;22.18;25.02
35918;BME280;22011;59.912;30.300;2023-04-26T12:10:53;100268.06;;;22.51;25.17
35918;BME280;22011;59.912;30.300;2023-04-26T12:13:21;100259.91;;;22.25;23.46
35918;BME280;22011;59.912;30.300;2023-04-26T12:15:48;100255.69;;;22.12;25.85
35918;BME280;22011;59.912;30.300;2023-04-26T12:18:17;100253.66;;;22.24;23.19
35918;BME280;22011;59.912;30.300;2023-04-26T12:20:45;100265.38;;;22.30;22.64
35918;BME280;22011;59.912;30.300;2023-04-26T12:23:13;100260.78;;;22.30;23.74
35918;BME280;22011;59.912;30.300;2023-04-26T12:25:51;100264.28;;;22.52;23.71
35918;BME280;22011;59.912;30.300;2023-04-26T12:28:20;100259.75;;;22.36;23.79
35918;BME280;22011;59.912;30.300;2023-04-26T12:30:48;100257.00;;;22.31;23.93
35918;BME280;22011;59.912;30.300;2023-04-26T12:33:16;100256.06;;;22.21;23.48
35918;BME280;22011;59.912;30.300;2023-04-26T12:35:47;100254.38;;;21.98;24.40
35918;BME280;22011;59.912;30.300;2023-04-26T12:38:15;100254.22;;;21.82;24.98
35918;BME280;22011;59.912;30.300;2023-04-26T12:40:44;100255.72;;;21.73;25.16
35918;BME280;22011;59.912;30.300;2023-04-26T12:43:12;100255.75;;;21.57;25.75
35918;BME280;22011;59.912;30.300;2023-04-26T12:45:41;100260.72;;;21.43;25.89
35918;BME280;22011;59.912;30.300;2023-04-26T12:48:08;100251.88;;;21.31;25.75
35918;BME280;22011;59.912;30.300;2023-04-26T12:50:36;100252.84;;;21.25;26.47
35918;BME280;22011;59.912;30.300;2023-04-26T12:53:04;100252.84;;;21.25;26.44
35918;BME280;22011;59.912;30.300;2023-04-26T12:55:31;100255.63;;;21.30;24.98